AZU9326 SBEG-SBRF
Flight info
| Callsign | AZU9326 |
|---|---|
| Flight time | N/A |
| Altitude | 33000 |
| Route | SIGEP UP527 OROVO/N0459F350 UP527 KIMOK |
| Aircraft | A321/M-SDE3FGHIRWY/LB1 |
Departure
| Time | 2026-04-14 15:21 |
|---|---|
| Airport | Eduardo Gomes International Airport (SBEG) |
Arrival
| Time | N/A |
|---|---|
| Airport | Recife/Guararapes - Gilberto Freyre International Airport (SBRF) |
| Time | Latitude | Longitude | Altitude | Speed | Heading |
|---|---|---|---|---|---|
| 2026-04-14 15:01 | -3.03157 | -60.04090 | 269 ft | 0 kts | 345° |
| 2026-04-14 15:10 | -3.03164 | -60.04088 | 268 ft | 2 kts | 342° |
| 2026-04-14 15:10 | -3.03180 | -60.04083 | 268 ft | 2 kts | 338° |
| 2026-04-14 15:10 | -3.03195 | -60.04076 | 268 ft | 2 kts | 330° |
| 2026-04-14 15:10 | -3.03209 | -60.04067 | 268 ft | 2 kts | 313° |
| 2026-04-14 15:11 | -3.03214 | -60.04062 | 268 ft | 2 kts | 301° |
| 2026-04-14 15:11 | -3.03220 | -60.04049 | 268 ft | 2 kts | 273° |
| 2026-04-14 15:11 | -3.03219 | -60.04033 | 268 ft | 2 kts | 257° |
| 2026-04-14 15:11 | -3.03218 | -60.04027 | 268 ft | 1 kts | 255° |
| 2026-04-14 15:12 | -3.03218 | -60.04026 | 268 ft | 0 kts | 255° |
| 2026-04-14 15:13 | -3.03220 | -60.04035 | 268 ft | 3 kts | 255° |
| 2026-04-14 15:13 | -3.03229 | -60.04069 | 268 ft | 7 kts | 255° |
| 2026-04-14 15:13 | -3.03245 | -60.04127 | 268 ft | 10 kts | 255° |
| 2026-04-14 15:14 | -3.03266 | -60.04209 | 268 ft | 14 kts | 255° |
| 2026-04-14 15:14 | -3.03290 | -60.04298 | 268 ft | 12 kts | 255° |
| 2026-04-14 15:14 | -3.03316 | -60.04378 | 268 ft | 14 kts | 247° |
| 2026-04-14 15:14 | -3.03345 | -60.04487 | 268 ft | 18 kts | 259° |
| 2026-04-14 15:15 | -3.03356 | -60.04618 | 268 ft | 20 kts | 270° |
| 2026-04-14 15:15 | -3.03367 | -60.04759 | 268 ft | 21 kts | 250° |
| 2026-04-14 15:15 | -3.03458 | -60.04868 | 268 ft | 20 kts | 214° |
| 2026-04-14 15:15 | -3.03547 | -60.04948 | 268 ft | 15 kts | 233° |
| 2026-04-14 15:16 | -3.03587 | -60.05029 | 268 ft | 12 kts | 252° |
| 2026-04-14 15:16 | -3.03609 | -60.05109 | 268 ft | 12 kts | 255° |
| 2026-04-14 15:16 | -3.03631 | -60.05190 | 268 ft | 12 kts | 255° |
| 2026-04-14 15:16 | -3.03656 | -60.05284 | 268 ft | 17 kts | 255° |
| 2026-04-14 15:17 | -3.03684 | -60.05426 | 268 ft | 24 kts | 262° |
| 2026-04-14 15:17 | -3.03691 | -60.05607 | 268 ft | 27 kts | 270° |
| 2026-04-14 15:17 | -3.03691 | -60.05788 | 268 ft | 26 kts | 270° |
| 2026-04-14 15:17 | -3.03690 | -60.05966 | 268 ft | 24 kts | 270° |
| 2026-04-14 15:18 | -3.03703 | -60.06127 | 268 ft | 23 kts | 246° |
| 2026-04-14 15:18 | -3.03763 | -60.06172 | 268 ft | 0 kts | 194° |
| 2026-04-14 15:18 | -3.03774 | -60.06173 | 268 ft | 5 kts | 187° |
| 2026-04-14 15:19 | -3.03828 | -60.06169 | 269 ft | 11 kts | 161° |
| 2026-04-14 15:19 | -3.03858 | -60.06092 | 269 ft | 13 kts | 90° |
| 2026-04-14 15:19 | -3.03857 | -60.06074 | 269 ft | 0 kts | 90° |
| 2026-04-14 15:20 | -3.03858 | -60.05923 | 269 ft | 57 kts | 90° |
| 2026-04-14 15:20 | -3.03859 | -60.05292 | 268 ft | 122 kts | 90° |
| 2026-04-14 15:20 | -3.03860 | -60.04259 | 276 ft | 173 kts | 89° |
| 2026-04-14 15:21 | -3.03861 | -60.03022 | 904 ft | 177 kts | 88° |
| 2026-04-14 15:21 | -3.03861 | -60.01799 | 1711 ft | 175 kts | 90° |
| 2026-04-14 15:21 | -3.03912 | -60.00571 | 2299 ft | 180 kts | 97° |
| 2026-04-14 15:21 | -3.04177 | -59.99285 | 2477 ft | 199 kts | 103° |
| 2026-04-14 15:22 | -3.04541 | -59.97885 | 2605 ft | 217 kts | 103° |
| 2026-04-14 15:22 | -3.04954 | -59.96348 | 2705 ft | 240 kts | 103° |
| 2026-04-14 15:22 | -3.05401 | -59.94667 | 2995 ft | 257 kts | 103° |
| 2026-04-14 15:22 | -3.05860 | -59.92917 | 3569 ft | 262 kts | 103° |
| 2026-04-14 15:23 | -3.06320 | -59.91141 | 4176 ft | 265 kts | 103° |
| 2026-04-14 15:23 | -3.06775 | -59.89364 | 4785 ft | 268 kts | 103° |
| 2026-04-14 15:23 | -3.07238 | -59.87548 | 5353 ft | 271 kts | 103° |
| 2026-04-14 15:23 | -3.07693 | -59.85698 | 5895 ft | 275 kts | 103° |
| 2026-04-14 15:24 | -3.08162 | -59.83823 | 6500 ft | 276 kts | 102° |
| 2026-04-14 15:24 | -3.08620 | -59.81973 | 7031 ft | 278 kts | 103° |
| 2026-04-14 15:24 | -3.09094 | -59.80093 | 7581 ft | 280 kts | 103° |
| 2026-04-14 15:24 | -3.09573 | -59.78201 | 8151 ft | 281 kts | 103° |
| 2026-04-14 15:25 | -3.10051 | -59.76296 | 8686 ft | 283 kts | 103° |
| 2026-04-14 15:25 | -3.10533 | -59.74376 | 9232 ft | 285 kts | 103° |
| 2026-04-14 15:25 | -3.11015 | -59.72446 | 9775 ft | 287 kts | 103° |
| 2026-04-14 15:25 | -3.11503 | -59.70490 | 10127 ft | 296 kts | 103° |
| 2026-04-14 15:26 | -3.12018 | -59.68437 | 10242 ft | 312 kts | 103° |
| 2026-04-14 15:26 | -3.12559 | -59.66277 | 10358 ft | 328 kts | 103° |
| 2026-04-14 15:26 | -3.13124 | -59.64019 | 10489 ft | 342 kts | 103° |
| 2026-04-14 15:26 | -3.13710 | -59.61680 | 10793 ft | 349 kts | 103° |
| 2026-04-14 15:27 | -3.14302 | -59.59314 | 11207 ft | 352 kts | 103° |
| 2026-04-14 15:27 | -3.14900 | -59.56934 | 11639 ft | 355 kts | 103° |
| 2026-04-14 15:27 | -3.15502 | -59.54527 | 12078 ft | 357 kts | 103° |
| 2026-04-14 15:27 | -3.16107 | -59.52108 | 12503 ft | 360 kts | 104° |
| 2026-04-14 15:28 | -3.16718 | -59.49666 | 12929 ft | 363 kts | 104° |
| 2026-04-14 15:28 | -3.17333 | -59.47210 | 13356 ft | 365 kts | 104° |
| 2026-04-14 15:28 | -3.17953 | -59.44734 | 13771 ft | 368 kts | 103° |
| 2026-04-14 15:28 | -3.18573 | -59.42243 | 14122 ft | 370 kts | 104° |
| 2026-04-14 15:29 | -3.19199 | -59.39737 | 14492 ft | 372 kts | 103° |
| 2026-04-14 15:29 | -3.19828 | -59.37219 | 14861 ft | 374 kts | 103° |
| 2026-04-14 15:29 | -3.20460 | -59.34684 | 15239 ft | 376 kts | 103° |
| 2026-04-14 15:29 | -3.21096 | -59.32139 | 15603 ft | 378 kts | 103° |
| 2026-04-14 15:30 | -3.21735 | -59.29583 | 15967 ft | 380 kts | 103° |
| 2026-04-14 15:30 | -3.22366 | -59.27044 | 16320 ft | 382 kts | 103° |
| 2026-04-14 15:30 | -3.23016 | -59.24421 | 16679 ft | 384 kts | 103° |
| 2026-04-14 15:30 | -3.23663 | -59.21819 | 17040 ft | 386 kts | 103° |
| 2026-04-14 15:31 | -3.24315 | -59.19206 | 17394 ft | 388 kts | 104° |
| 2026-04-14 15:31 | -3.24972 | -59.16582 | 17745 ft | 390 kts | 104° |
| 2026-04-14 15:31 | -3.25635 | -59.13937 | 18097 ft | 392 kts | 104° |
| 2026-04-14 15:31 | -3.26291 | -59.11320 | 18400 ft | 394 kts | 104° |
| 2026-04-14 15:32 | -3.26957 | -59.08652 | 18697 ft | 396 kts | 104° |
| 2026-04-14 15:32 | -3.27623 | -59.05975 | 18984 ft | 398 kts | 104° |
| 2026-04-14 15:32 | -3.28303 | -59.03243 | 19271 ft | 399 kts | 103° |
| 2026-04-14 15:32 | -3.28926 | -59.00569 | 19542 ft | 401 kts | 102° |
| 2026-04-14 15:33 | -3.29495 | -58.97833 | 19830 ft | 403 kts | 101° |
| 2026-04-14 15:33 | -3.30029 | -58.95076 | 20112 ft | 404 kts | 101° |
| 2026-04-14 15:33 | -3.30553 | -58.92301 | 20391 ft | 406 kts | 101° |
| 2026-04-14 15:33 | -3.31082 | -58.89523 | 20664 ft | 408 kts | 101° |
| 2026-04-14 15:34 | -3.31624 | -58.86731 | 20936 ft | 409 kts | 101° |
| 2026-04-14 15:34 | -3.32179 | -58.83935 | 21199 ft | 411 kts | 101° |
| 2026-04-14 15:34 | -3.32744 | -58.81128 | 21463 ft | 412 kts | 101° |
| 2026-04-14 15:34 | -3.33314 | -58.78313 | 21726 ft | 414 kts | 101° |
| 2026-04-14 15:35 | -3.33886 | -58.75485 | 21979 ft | 415 kts | 101° |
| 2026-04-14 15:35 | -3.34459 | -58.72649 | 22249 ft | 416 kts | 101° |
| 2026-04-14 15:35 | -3.35033 | -58.69803 | 22497 ft | 418 kts | 101° |
| 2026-04-14 15:35 | -3.35609 | -58.66947 | 22755 ft | 419 kts | 101° |
| 2026-04-14 15:36 | -3.36186 | -58.64080 | 22999 ft | 421 kts | 101° |
| 2026-04-14 15:36 | -3.36764 | -58.61203 | 23246 ft | 422 kts | 101° |
| 2026-04-14 15:36 | -3.37344 | -58.58322 | 23487 ft | 424 kts | 101° |
| 2026-04-14 15:36 | -3.37929 | -58.55422 | 23697 ft | 425 kts | 101° |
| 2026-04-14 15:37 | -3.38504 | -58.52556 | 23894 ft | 427 kts | 101° |
| 2026-04-14 15:37 | -3.39087 | -58.49637 | 24104 ft | 428 kts | 101° |
| 2026-04-14 15:37 | -3.39674 | -58.46715 | 24284 ft | 429 kts | 101° |
| 2026-04-14 15:37 | -3.40263 | -58.43783 | 24491 ft | 430 kts | 101° |
| 2026-04-14 15:38 | -3.40852 | -58.40843 | 24688 ft | 432 kts | 101° |
| 2026-04-14 15:38 | -3.41444 | -58.37890 | 24882 ft | 433 kts | 101° |
| 2026-04-14 15:38 | -3.42039 | -58.34933 | 25066 ft | 434 kts | 101° |
| 2026-04-14 15:38 | -3.42634 | -58.31964 | 25254 ft | 436 kts | 101° |
| 2026-04-14 15:39 | -3.43229 | -58.28989 | 25441 ft | 437 kts | 101° |
| 2026-04-14 15:39 | -3.43830 | -58.25999 | 25630 ft | 438 kts | 101° |
| 2026-04-14 15:39 | -3.44432 | -58.23005 | 25816 ft | 439 kts | 101° |
| 2026-04-14 15:39 | -3.45033 | -58.20002 | 26002 ft | 441 kts | 101° |
| 2026-04-14 15:40 | -3.45635 | -58.16993 | 26186 ft | 442 kts | 101° |
| 2026-04-14 15:40 | -3.46238 | -58.13967 | 26367 ft | 443 kts | 101° |
| 2026-04-14 15:40 | -3.46838 | -58.10943 | 26550 ft | 444 kts | 101° |
| 2026-04-14 15:40 | -3.47444 | -58.07901 | 26733 ft | 446 kts | 101° |
| 2026-04-14 15:41 | -3.48052 | -58.04859 | 26913 ft | 447 kts | 101° |
| 2026-04-14 15:41 | -3.48665 | -58.01801 | 27092 ft | 448 kts | 101° |
| 2026-04-14 15:41 | -3.49281 | -57.98740 | 27279 ft | 449 kts | 101° |
| 2026-04-14 15:41 | -3.49897 | -57.95671 | 27447 ft | 451 kts | 101° |
| 2026-04-14 15:42 | -3.50516 | -57.92590 | 27627 ft | 452 kts | 101° |
| 2026-04-14 15:42 | -3.51135 | -57.89502 | 27804 ft | 453 kts | 101° |
| 2026-04-14 15:42 | -3.51754 | -57.86402 | 27974 ft | 455 kts | 101° |
| 2026-04-14 15:42 | -3.52374 | -57.83296 | 28140 ft | 456 kts | 101° |
| 2026-04-14 15:43 | -3.52998 | -57.80183 | 28311 ft | 457 kts | 101° |
| 2026-04-14 15:43 | -3.53625 | -57.77058 | 28478 ft | 458 kts | 101° |
| 2026-04-14 15:43 | -3.54251 | -57.73929 | 28639 ft | 459 kts | 101° |
| 2026-04-14 15:43 | -3.54877 | -57.70789 | 28783 ft | 461 kts | 101° |
| 2026-04-14 15:44 | -3.55497 | -57.67680 | 28924 ft | 462 kts | 101° |
| 2026-04-14 15:44 | -3.56126 | -57.64527 | 29073 ft | 463 kts | 101° |
| 2026-04-14 15:44 | -3.56754 | -57.61366 | 29198 ft | 464 kts | 101° |
| 2026-04-14 15:44 | -3.57384 | -57.58195 | 29312 ft | 465 kts | 101° |
| 2026-04-14 15:45 | -3.58017 | -57.55022 | 29465 ft | 465 kts | 101° |
| 2026-04-14 15:45 | -3.58655 | -57.51840 | 29592 ft | 466 kts | 101° |
| 2026-04-14 15:45 | -3.59291 | -57.48663 | 29720 ft | 467 kts | 101° |
| 2026-04-14 15:45 | -3.59928 | -57.45477 | 29863 ft | 467 kts | 101° |
| 2026-04-14 15:46 | -3.60563 | -57.42291 | 29991 ft | 468 kts | 101° |
| 2026-04-14 15:46 | -3.61199 | -57.39087 | 30107 ft | 468 kts | 101° |
| 2026-04-14 15:46 | -3.61835 | -57.35891 | 30223 ft | 468 kts | 101° |
| 2026-04-14 15:46 | -3.62472 | -57.32697 | 30349 ft | 468 kts | 101° |
| 2026-04-14 15:47 | -3.63113 | -57.29502 | 30476 ft | 468 kts | 101° |
| 2026-04-14 15:47 | -3.63753 | -57.26310 | 30604 ft | 468 kts | 101° |
| 2026-04-14 15:47 | -3.64386 | -57.23117 | 30733 ft | 468 kts | 101° |
| 2026-04-14 15:47 | -3.65014 | -57.19925 | 30870 ft | 467 kts | 101° |
| 2026-04-14 15:48 | -3.65638 | -57.16734 | 30992 ft | 467 kts | 101° |
| 2026-04-14 15:48 | -3.66264 | -57.13545 | 31120 ft | 467 kts | 101° |
| 2026-04-14 15:48 | -3.66892 | -57.10359 | 31248 ft | 467 kts | 101° |
| 2026-04-14 15:48 | -3.67525 | -57.07172 | 31375 ft | 467 kts | 101° |
| 2026-04-14 15:49 | -3.68156 | -57.03989 | 31515 ft | 466 kts | 101° |
| 2026-04-14 15:49 | -3.68788 | -57.00802 | 31643 ft | 466 kts | 101° |
| 2026-04-14 15:49 | -3.69420 | -56.97621 | 31771 ft | 466 kts | 101° |
| 2026-04-14 15:49 | -3.70050 | -56.94440 | 31899 ft | 466 kts | 101° |
| 2026-04-14 15:50 | -3.70680 | -56.91256 | 32031 ft | 466 kts | 101° |
| 2026-04-14 15:50 | -3.71309 | -56.88075 | 32163 ft | 466 kts | 101° |
| 2026-04-14 15:50 | -3.71939 | -56.84896 | 32299 ft | 465 kts | 101° |
| 2026-04-14 15:50 | -3.72565 | -56.81720 | 32430 ft | 465 kts | 101° |
| 2026-04-14 15:51 | -3.73190 | -56.78544 | 32558 ft | 465 kts | 101° |
| 2026-04-14 15:51 | -3.73816 | -56.75371 | 32690 ft | 465 kts | 101° |
| 2026-04-14 15:51 | -3.74439 | -56.72198 | 32845 ft | 464 kts | 101° |
| 2026-04-14 15:51 | -3.75063 | -56.69035 | 32919 ft | 462 kts | 101° |
| 2026-04-14 15:52 | -3.76306 | -56.62751 | 32929 ft | 459 kts | 101° |
| 2026-04-14 15:52 | -3.77547 | -56.56492 | 32928 ft | 459 kts | 101° |
| 2026-04-14 15:53 | -3.78776 | -56.50223 | 32930 ft | 459 kts | 101° |
| 2026-04-14 15:53 | -3.80007 | -56.43953 | 32928 ft | 459 kts | 101° |
| 2026-04-14 15:54 | -3.81861 | -56.34579 | 32931 ft | 460 kts | 101° |
| 2026-04-14 15:55 | -3.83099 | -56.28298 | 32931 ft | 460 kts | 101° |
| 2026-04-14 15:55 | -3.84325 | -56.22017 | 32933 ft | 460 kts | 101° |
| 2026-04-14 15:56 | -3.85554 | -56.15722 | 32934 ft | 460 kts | 101° |
| 2026-04-14 15:56 | -3.86798 | -56.09434 | 32933 ft | 460 kts | 101° |
| 2026-04-14 15:57 | -3.88037 | -56.03146 | 32933 ft | 460 kts | 101° |
| 2026-04-14 15:57 | -3.89272 | -55.96850 | 32931 ft | 461 kts | 101° |
| 2026-04-14 15:58 | -3.90500 | -55.90559 | 32934 ft | 461 kts | 101° |
| 2026-04-14 15:58 | -3.91531 | -55.85322 | 32932 ft | 461 kts | 101° |
| 2026-04-14 15:59 | -3.92776 | -55.79031 | 32931 ft | 461 kts | 101° |
| 2026-04-14 15:59 | -3.94012 | -55.72727 | 32921 ft | 463 kts | 101° |
| 2026-04-14 16:00 | -3.95259 | -55.66344 | 32923 ft | 470 kts | 101° |
| 2026-04-14 16:00 | -3.96527 | -55.59891 | 32918 ft | 475 kts | 101° |
| 2026-04-14 16:01 | -3.97805 | -55.53368 | 32925 ft | 479 kts | 101° |
| 2026-04-14 16:01 | -3.99095 | -55.46799 | 32923 ft | 482 kts | 101° |
| 2026-04-14 16:02 | -4.00389 | -55.40187 | 32920 ft | 485 kts | 101° |
| 2026-04-14 16:02 | -4.01674 | -55.33600 | 32919 ft | 486 kts | 101° |
| 2026-04-14 16:03 | -4.02979 | -55.26956 | 32929 ft | 486 kts | 101° |
| 2026-04-14 16:03 | -4.04298 | -55.20305 | 32932 ft | 487 kts | 101° |
| 2026-04-14 16:04 | -4.05608 | -55.13649 | 32940 ft | 487 kts | 101° |
| 2026-04-14 16:04 | -4.06924 | -55.06986 | 32943 ft | 488 kts | 101° |
| 2026-04-14 16:05 | -4.08235 | -55.00319 | 32945 ft | 488 kts | 101° |
| 2026-04-14 16:05 | -4.09546 | -54.93647 | 32943 ft | 488 kts | 101° |
| 2026-04-14 16:06 | -4.10868 | -54.86983 | 32947 ft | 488 kts | 101° |
| 2026-04-14 16:06 | -4.12188 | -54.80314 | 32948 ft | 488 kts | 101° |
| 2026-04-14 16:07 | -4.13498 | -54.73640 | 32946 ft | 488 kts | 101° |
| 2026-04-14 16:07 | -4.14812 | -54.66975 | 32948 ft | 488 kts | 101° |
| 2026-04-14 16:08 | -4.16127 | -54.60307 | 32950 ft | 488 kts | 101° |
| 2026-04-14 16:08 | -4.17437 | -54.53647 | 32947 ft | 487 kts | 101° |
| 2026-04-14 16:09 | -4.18725 | -54.47029 | 32945 ft | 487 kts | 101° |
| 2026-04-14 16:09 | -4.20001 | -54.40371 | 32946 ft | 487 kts | 101° |
| 2026-04-14 16:10 | -4.21280 | -54.33708 | 32946 ft | 487 kts | 101° |
| 2026-04-14 16:10 | -4.22555 | -54.27054 | 32948 ft | 486 kts | 101° |
| 2026-04-14 16:11 | -4.23836 | -54.20400 | 32949 ft | 486 kts | 101° |
| 2026-04-14 16:11 | -4.25111 | -54.13743 | 32949 ft | 486 kts | 101° |
| 2026-04-14 16:12 | -4.26386 | -54.07086 | 32946 ft | 486 kts | 101° |
| 2026-04-14 16:12 | -4.27664 | -54.00436 | 32945 ft | 486 kts | 101° |
| 2026-04-14 16:13 | -4.28937 | -53.93793 | 32946 ft | 486 kts | 101° |
| 2026-04-14 16:13 | -4.30210 | -53.87148 | 32939 ft | 485 kts | 101° |
| 2026-04-14 16:14 | -4.31482 | -53.80511 | 32938 ft | 485 kts | 101° |
| 2026-04-14 16:14 | -4.32754 | -53.73868 | 32934 ft | 485 kts | 101° |
| 2026-04-14 16:15 | -4.34021 | -53.67233 | 32938 ft | 485 kts | 101° |
| 2026-04-14 16:15 | -4.35288 | -53.60596 | 32931 ft | 485 kts | 101° |
| 2026-04-14 16:16 | -4.36552 | -53.53959 | 32935 ft | 485 kts | 101° |
| 2026-04-14 16:16 | -4.37821 | -53.47314 | 32934 ft | 486 kts | 101° |
| 2026-04-14 16:17 | -4.39088 | -53.40670 | 32932 ft | 486 kts | 101° |
| 2026-04-14 16:17 | -4.40357 | -53.34025 | 32936 ft | 486 kts | 101° |
| 2026-04-14 16:18 | -4.41618 | -53.27378 | 32938 ft | 485 kts | 101° |
| 2026-04-14 16:18 | -4.42878 | -53.20737 | 32924 ft | 485 kts | 101° |
| 2026-04-14 16:19 | -4.44125 | -53.14153 | 32934 ft | 484 kts | 101° |
| 2026-04-14 16:19 | -4.45392 | -53.07476 | 32928 ft | 484 kts | 101° |
| 2026-04-14 16:20 | -4.46655 | -53.00853 | 32932 ft | 484 kts | 101° |
| 2026-04-14 16:20 | -4.47908 | -52.94267 | 32933 ft | 484 kts | 101° |
| 2026-04-14 16:21 | -4.49178 | -52.87595 | 32937 ft | 484 kts | 101° |
| 2026-04-14 16:21 | -4.50422 | -52.81018 | 32932 ft | 484 kts | 101° |
| 2026-04-14 16:22 | -4.51678 | -52.74394 | 32934 ft | 483 kts | 101° |
| 2026-04-14 16:22 | -4.52938 | -52.67780 | 32928 ft | 483 kts | 101° |
| 2026-04-14 16:23 | -4.54200 | -52.61174 | 32927 ft | 483 kts | 101° |
| 2026-04-14 16:23 | -4.55458 | -52.54563 | 32924 ft | 482 kts | 101° |
| 2026-04-14 16:24 | -4.56703 | -52.47949 | 32927 ft | 483 kts | 101° |
| 2026-04-14 16:24 | -4.57967 | -52.41331 | 32929 ft | 484 kts | 101° |
| 2026-04-14 16:25 | -4.59231 | -52.34711 | 32927 ft | 484 kts | 101° |
| 2026-04-14 16:25 | -4.60494 | -52.28086 | 32926 ft | 484 kts | 101° |
| 2026-04-14 16:26 | -4.61759 | -52.21459 | 32929 ft | 485 kts | 101° |
| 2026-04-14 16:26 | -4.63015 | -52.14819 | 32926 ft | 485 kts | 101° |
| 2026-04-14 16:27 | -4.64270 | -52.08169 | 32930 ft | 485 kts | 101° |
| 2026-04-14 16:27 | -4.65521 | -52.01563 | 32926 ft | 486 kts | 101° |
| 2026-04-14 16:28 | -4.66773 | -51.94908 | 32929 ft | 486 kts | 101° |
| 2026-04-14 16:28 | -4.68040 | -51.88243 | 32926 ft | 487 kts | 101° |
| 2026-04-14 16:29 | -4.69318 | -51.81583 | 32930 ft | 487 kts | 101° |
| 2026-04-14 16:29 | -4.70598 | -51.74919 | 32925 ft | 487 kts | 101° |
| 2026-04-14 16:30 | -4.71870 | -51.68257 | 32925 ft | 487 kts | 101° |
| 2026-04-14 16:30 | -4.73141 | -51.61595 | 32923 ft | 487 kts | 101° |
| 2026-04-14 16:31 | -4.74417 | -51.54922 | 32924 ft | 487 kts | 101° |
| 2026-04-14 16:31 | -4.75691 | -51.48250 | 32925 ft | 487 kts | 101° |
| 2026-04-14 16:32 | -4.76960 | -51.41577 | 32920 ft | 487 kts | 101° |
| 2026-04-14 16:32 | -4.78233 | -51.34906 | 32919 ft | 487 kts | 101° |
| 2026-04-14 16:33 | -4.79502 | -51.28233 | 32918 ft | 487 kts | 101° |
| 2026-04-14 16:33 | -4.80770 | -51.21553 | 32922 ft | 488 kts | 101° |
| 2026-04-14 16:34 | -4.82041 | -51.14871 | 32923 ft | 488 kts | 101° |
| 2026-04-14 16:34 | -4.83319 | -51.08192 | 32917 ft | 488 kts | 101° |
| 2026-04-14 16:35 | -4.84576 | -51.01500 | 32918 ft | 488 kts | 101° |
| 2026-04-14 16:35 | -4.85192 | -50.98181 | 33323 ft | 479 kts | 101° |
| 2026-04-14 16:35 | -4.85795 | -50.94934 | 33863 ft | 470 kts | 101° |
| 2026-04-14 16:35 | -4.86395 | -50.91729 | 34128 ft | 466 kts | 101° |
| 2026-04-14 16:36 | -4.86994 | -50.88539 | 34315 ft | 465 kts | 101° |
| 2026-04-14 16:36 | -4.87592 | -50.85359 | 34469 ft | 464 kts | 101° |
| 2026-04-14 16:36 | -4.88188 | -50.82180 | 34613 ft | 464 kts | 101° |
| 2026-04-14 16:36 | -4.88773 | -50.79043 | 34776 ft | 463 kts | 101° |
| 2026-04-14 16:37 | -4.89375 | -50.75825 | 34880 ft | 463 kts | 101° |
| 2026-04-14 16:37 | -4.90556 | -50.69522 | 34893 ft | 463 kts | 101° |
| 2026-04-14 16:38 | -4.91750 | -50.63173 | 34893 ft | 463 kts | 101° |
| 2026-04-14 16:38 | -4.92941 | -50.56823 | 34892 ft | 463 kts | 101° |
| 2026-04-14 16:39 | -4.94135 | -50.50470 | 34891 ft | 463 kts | 101° |
| 2026-04-14 16:39 | -4.95321 | -50.44121 | 34892 ft | 464 kts | 101° |
| 2026-04-14 16:40 | -4.96516 | -50.37761 | 34895 ft | 464 kts | 101° |
| 2026-04-14 16:40 | -4.97712 | -50.31400 | 34897 ft | 464 kts | 101° |
| 2026-04-14 16:41 | -4.98914 | -50.25032 | 34899 ft | 465 kts | 101° |
| 2026-04-14 16:41 | -5.00119 | -50.18661 | 34899 ft | 465 kts | 101° |
| 2026-04-14 16:42 | -5.01322 | -50.12286 | 34900 ft | 465 kts | 101° |
| 2026-04-14 16:42 | -5.02520 | -50.05905 | 34899 ft | 466 kts | 101° |
| 2026-04-14 16:43 | -5.03719 | -49.99520 | 34897 ft | 466 kts | 101° |
| 2026-04-14 16:43 | -5.04932 | -49.93128 | 34900 ft | 467 kts | 101° |
| 2026-04-14 16:44 | -5.06139 | -49.86736 | 34899 ft | 467 kts | 101° |
| 2026-04-14 16:44 | -5.07333 | -49.80380 | 34895 ft | 467 kts | 101° |
| 2026-04-14 16:45 | -5.09140 | -49.70767 | 34896 ft | 468 kts | 101° |
| 2026-04-14 16:45 | -5.10344 | -49.64353 | 34900 ft | 468 kts | 101° |
| 2026-04-14 16:46 | -5.11551 | -49.57936 | 34897 ft | 468 kts | 101° |
| 2026-04-14 16:46 | -5.12759 | -49.51512 | 34899 ft | 469 kts | 101° |
| 2026-04-14 16:47 | -5.13965 | -49.45087 | 34897 ft | 469 kts | 101° |
| 2026-04-14 16:47 | -5.15185 | -49.38603 | 34879 ft | 476 kts | 101° |
| 2026-04-14 16:48 | -5.16210 | -49.33143 | 34884 ft | 481 kts | 101° |
| 2026-04-14 16:48 | -5.17453 | -49.26525 | 34885 ft | 485 kts | 101° |
| 2026-04-14 16:49 | -5.18704 | -49.19857 | 34887 ft | 487 kts | 101° |
| 2026-04-14 16:49 | -5.19955 | -49.13173 | 34887 ft | 488 kts | 101° |
| 2026-04-14 16:50 | -5.21203 | -49.06476 | 34894 ft | 488 kts | 101° |
| 2026-04-14 16:50 | -5.22453 | -48.99782 | 34897 ft | 489 kts | 101° |
| 2026-04-14 16:51 | -5.23706 | -48.93068 | 34903 ft | 489 kts | 101° |
| 2026-04-14 16:51 | -5.24965 | -48.86361 | 34902 ft | 490 kts | 101° |
| 2026-04-14 16:52 | -5.26223 | -48.79647 | 34899 ft | 490 kts | 101° |
| 2026-04-14 16:52 | -5.27474 | -48.72928 | 34900 ft | 490 kts | 101° |
| 2026-04-14 16:53 | -5.28720 | -48.66203 | 34901 ft | 490 kts | 101° |
| 2026-04-14 16:53 | -5.29940 | -48.59519 | 34899 ft | 490 kts | 101° |
| 2026-04-14 16:54 | -5.31150 | -48.52790 | 34900 ft | 490 kts | 101° |
| 2026-04-14 16:54 | -5.32362 | -48.46055 | 34898 ft | 490 kts | 101° |
| 2026-04-14 16:55 | -5.33587 | -48.39320 | 34897 ft | 490 kts | 101° |
| 2026-04-14 16:55 | -5.34839 | -48.32597 | 34896 ft | 491 kts | 101° |
| 2026-04-14 16:56 | -5.36098 | -48.25861 | 34897 ft | 491 kts | 101° |
| 2026-04-14 16:56 | -5.37351 | -48.19134 | 34891 ft | 491 kts | 101° |
| 2026-04-14 16:57 | -5.38584 | -48.12397 | 34896 ft | 491 kts | 101° |
| 2026-04-14 16:57 | -5.39821 | -48.05660 | 34896 ft | 491 kts | 101° |
| 2026-04-14 16:58 | -5.41066 | -47.98924 | 34897 ft | 491 kts | 101° |
| 2026-04-14 16:58 | -5.42314 | -47.92193 | 34893 ft | 490 kts | 101° |
| 2026-04-14 16:59 | -5.43558 | -47.85465 | 34889 ft | 490 kts | 101° |
| 2026-04-14 16:59 | -5.44790 | -47.78741 | 34891 ft | 490 kts | 101° |
| 2026-04-14 17:00 | -5.46032 | -47.72007 | 34890 ft | 490 kts | 101° |
| 2026-04-14 17:00 | -5.47269 | -47.65279 | 34885 ft | 490 kts | 100° |
| 2026-04-14 17:01 | -5.48507 | -47.58541 | 34886 ft | 491 kts | 101° |
| 2026-04-14 17:01 | -5.49742 | -47.51858 | 34896 ft | 491 kts | 101° |
| 2026-04-14 17:02 | -5.50991 | -47.45081 | 34892 ft | 490 kts | 101° |
| 2026-04-14 17:02 | -5.51874 | -47.40274 | 34893 ft | 490 kts | 101° |
| 2026-04-14 17:03 | -5.52715 | -47.35668 | 34887 ft | 490 kts | 100° |
| 2026-04-14 17:03 | -5.53935 | -47.28938 | 34891 ft | 490 kts | 100° |
| 2026-04-14 17:04 | -5.55161 | -47.22211 | 34893 ft | 490 kts | 100° |
| 2026-04-14 17:04 | -5.56389 | -47.15493 | 34893 ft | 490 kts | 100° |
| 2026-04-14 17:05 | -5.57613 | -47.08765 | 34893 ft | 490 kts | 100° |
| 2026-04-14 17:05 | -5.58838 | -47.02040 | 34892 ft | 490 kts | 100° |
| 2026-04-14 17:06 | -5.60059 | -46.95307 | 34897 ft | 490 kts | 100° |
| 2026-04-14 17:06 | -5.61290 | -46.88580 | 34895 ft | 490 kts | 100° |
| 2026-04-14 17:07 | -5.62512 | -46.81842 | 34894 ft | 490 kts | 100° |
| 2026-04-14 17:07 | -5.63728 | -46.75106 | 34893 ft | 490 kts | 100° |
| 2026-04-14 17:08 | -5.64960 | -46.68375 | 34888 ft | 491 kts | 100° |
| 2026-04-14 17:08 | -5.66189 | -46.61627 | 34890 ft | 491 kts | 100° |
| 2026-04-14 17:09 | -5.67402 | -46.54875 | 34876 ft | 491 kts | 100° |
| 2026-04-14 17:09 | -5.68614 | -46.48124 | 34884 ft | 491 kts | 100° |
| 2026-04-14 17:10 | -5.69824 | -46.41421 | 34884 ft | 491 kts | 100° |
| 2026-04-14 17:10 | -5.71053 | -46.34667 | 34888 ft | 491 kts | 100° |
| 2026-04-14 17:11 | -5.72280 | -46.27917 | 34883 ft | 491 kts | 100° |
| 2026-04-14 17:11 | -5.73497 | -46.21173 | 34894 ft | 492 kts | 100° |
| 2026-04-14 17:12 | -5.74702 | -46.14415 | 34892 ft | 492 kts | 100° |
| 2026-04-14 17:12 | -5.75907 | -46.07656 | 34894 ft | 492 kts | 100° |
| 2026-04-14 17:13 | -5.77147 | -46.00901 | 34904 ft | 492 kts | 101° |
| 2026-04-14 17:13 | -5.78374 | -45.94145 | 34894 ft | 492 kts | 100° |
| 2026-04-14 17:14 | -5.79580 | -45.87376 | 34893 ft | 492 kts | 100° |
| 2026-04-14 17:14 | -5.80775 | -45.80603 | 34883 ft | 492 kts | 100° |
| 2026-04-14 17:15 | -5.81992 | -45.73846 | 34886 ft | 492 kts | 100° |
| 2026-04-14 17:15 | -5.83209 | -45.67086 | 34897 ft | 492 kts | 100° |
| 2026-04-14 17:16 | -5.84421 | -45.60316 | 34896 ft | 492 kts | 100° |
| 2026-04-14 17:16 | -5.85634 | -45.53554 | 34895 ft | 492 kts | 100° |
| 2026-04-14 17:17 | -5.86855 | -45.46784 | 34893 ft | 492 kts | 100° |
| 2026-04-14 17:17 | -5.88067 | -45.40019 | 34890 ft | 492 kts | 100° |
| 2026-04-14 17:18 | -5.89273 | -45.33256 | 34890 ft | 492 kts | 99° |
| 2026-04-14 17:18 | -5.90478 | -45.26493 | 34893 ft | 492 kts | 99° |
| 2026-04-14 17:19 | -5.91685 | -45.19738 | 34892 ft | 492 kts | 99° |
| 2026-04-14 17:19 | -5.92890 | -45.12984 | 34883 ft | 491 kts | 99° |
| 2026-04-14 17:20 | -5.94094 | -45.06225 | 34896 ft | 491 kts | 99° |
| 2026-04-14 17:20 | -5.95307 | -44.99481 | 34920 ft | 490 kts | 98° |
| 2026-04-14 17:21 | -5.96511 | -44.92832 | 34872 ft | 480 kts | 98° |
| 2026-04-14 17:21 | -5.97684 | -44.86282 | 34871 ft | 479 kts | 98° |
| 2026-04-14 17:22 | -5.98864 | -44.79652 | 34872 ft | 479 kts | 98° |
| 2026-04-14 17:22 | -6.00035 | -44.73100 | 34873 ft | 480 kts | 98° |
| 2026-04-14 17:23 | -6.01214 | -44.66503 | 34878 ft | 480 kts | 98° |
| 2026-04-14 17:23 | -6.02391 | -44.59894 | 34884 ft | 481 kts | 98° |
| 2026-04-14 17:24 | -6.03570 | -44.53277 | 34889 ft | 481 kts | 99° |
| 2026-04-14 17:24 | -6.04755 | -44.46654 | 34890 ft | 482 kts | 99° |
| 2026-04-14 17:25 | -6.05932 | -44.40022 | 34891 ft | 482 kts | 99° |
| 2026-04-14 17:25 | -6.07108 | -44.33381 | 34889 ft | 483 kts | 99° |
| 2026-04-14 17:26 | -6.08284 | -44.26739 | 34895 ft | 483 kts | 99° |
| 2026-04-14 17:26 | -6.09464 | -44.20085 | 34890 ft | 484 kts | 99° |
| 2026-04-14 17:27 | -6.10632 | -44.13426 | 34890 ft | 484 kts | 98° |
| 2026-04-14 17:27 | -6.11796 | -44.06761 | 34891 ft | 485 kts | 98° |
| 2026-04-14 17:28 | -6.12966 | -44.00085 | 34892 ft | 485 kts | 98° |
| 2026-04-14 17:28 | -6.14113 | -43.93546 | 34892 ft | 486 kts | 98° |
| 2026-04-14 17:29 | -6.15287 | -43.86855 | 34891 ft | 486 kts | 99° |
| 2026-04-14 17:29 | -6.16453 | -43.80161 | 34891 ft | 486 kts | 98° |
| 2026-04-14 17:30 | -6.17619 | -43.73465 | 34895 ft | 487 kts | 98° |
| 2026-04-14 17:30 | -6.18795 | -43.66764 | 34895 ft | 487 kts | 98° |
| 2026-04-14 17:31 | -6.19963 | -43.60058 | 34899 ft | 487 kts | 98° |
| 2026-04-14 17:31 | -6.21129 | -43.53357 | 34894 ft | 486 kts | 98° |
| 2026-04-14 17:32 | -6.22293 | -43.46665 | 34889 ft | 486 kts | 98° |
| 2026-04-14 17:32 | -6.23451 | -43.40005 | 34894 ft | 486 kts | 98° |
| 2026-04-14 17:33 | -6.24622 | -43.33311 | 34892 ft | 486 kts | 98° |
| 2026-04-14 17:34 | -6.26406 | -43.23265 | 34889 ft | 487 kts | 98° |
| 2026-04-14 17:34 | -6.27400 | -43.17655 | 34888 ft | 487 kts | 98° |
| 2026-04-14 17:35 | -6.28592 | -43.10952 | 34889 ft | 487 kts | 98° |
| 2026-04-14 17:35 | -6.29779 | -43.04258 | 34884 ft | 487 kts | 98° |
| 2026-04-14 17:36 | -6.30966 | -42.97549 | 34872 ft | 487 kts | 98° |
| 2026-04-14 17:36 | -6.32148 | -42.90836 | 34874 ft | 488 kts | 98° |
| 2026-04-14 17:37 | -6.33337 | -42.84118 | 34875 ft | 488 kts | 98° |
| 2026-04-14 17:37 | -6.34529 | -42.77402 | 34877 ft | 488 kts | 98° |
| 2026-04-14 17:38 | -6.35715 | -42.70685 | 34876 ft | 488 kts | 98° |
| 2026-04-14 17:38 | -6.36892 | -42.63955 | 34873 ft | 489 kts | 98° |
| 2026-04-14 17:39 | -6.38038 | -42.57267 | 34873 ft | 489 kts | 98° |
| 2026-04-14 17:39 | -6.39195 | -42.50532 | 34872 ft | 489 kts | 98° |
| 2026-04-14 17:40 | -6.40360 | -42.43786 | 34875 ft | 490 kts | 98° |
| 2026-04-14 17:40 | -6.41524 | -42.37036 | 34878 ft | 490 kts | 98° |
| 2026-04-14 17:41 | -6.42690 | -42.30275 | 34878 ft | 490 kts | 98° |
| 2026-04-14 17:41 | -6.43849 | -42.23513 | 34879 ft | 491 kts | 98° |
| 2026-04-14 17:42 | -6.45005 | -42.16755 | 34880 ft | 491 kts | 98° |
| 2026-04-14 17:42 | -6.46160 | -42.09981 | 34880 ft | 491 kts | 98° |
| 2026-04-14 17:43 | -6.47317 | -42.03209 | 34878 ft | 491 kts | 98° |
| 2026-04-14 17:43 | -6.48478 | -41.96434 | 34882 ft | 492 kts | 98° |
| 2026-04-14 17:44 | -6.49638 | -41.89656 | 34882 ft | 492 kts | 98° |
| 2026-04-14 17:44 | -6.50801 | -41.82879 | 34888 ft | 492 kts | 98° |
| 2026-04-14 17:45 | -6.51959 | -41.76100 | 34889 ft | 492 kts | 98° |
| 2026-04-14 17:45 | -6.53115 | -41.69316 | 34891 ft | 492 kts | 98° |
| 2026-04-14 17:46 | -6.54270 | -41.62519 | 34893 ft | 493 kts | 98° |
| 2026-04-14 17:46 | -6.55424 | -41.55730 | 34892 ft | 493 kts | 98° |
| 2026-04-14 17:47 | -6.56576 | -41.48944 | 34894 ft | 492 kts | 98° |
| 2026-04-14 17:47 | -6.57729 | -41.42155 | 34896 ft | 492 kts | 98° |
| 2026-04-14 17:48 | -6.58878 | -41.35411 | 34896 ft | 492 kts | 98° |
| 2026-04-14 17:48 | -6.60033 | -41.28636 | 34895 ft | 492 kts | 98° |
| 2026-04-14 17:49 | -6.61191 | -41.21861 | 34896 ft | 492 kts | 99° |
| 2026-04-14 17:49 | -6.62542 | -41.15069 | 34896 ft | 492 kts | 101° |
| 2026-04-14 17:50 | -6.63994 | -41.08391 | 34898 ft | 492 kts | 101° |
| 2026-04-14 17:50 | -6.65437 | -41.01658 | 34898 ft | 492 kts | 100° |
| 2026-04-14 17:51 | -6.66830 | -40.94913 | 34898 ft | 493 kts | 100° |
| 2026-04-14 17:51 | -6.68225 | -40.88163 | 34899 ft | 493 kts | 100° |